sensor_id;sensor_type;location;lat;lon;timestamp;P1;durP1;ratioP1;P2;durP2;ratioP2
3307;SDS011;1666;48.898;9.182;2024-01-15T00:00:13;34.67;;;15.18;;
3307;SDS011;1666;48.898;9.182;2024-01-15T00:02:44;32.45;;;13.75;;
3307;SDS011;1666;48.898;9.182;2024-01-15T00:05:16;33.55;;;15.75;;
3307;SDS011;1666;48.898;9.182;2024-01-15T00:07:49;36.08;;;15.68;;
3307;SDS011;1666;48.898;9.182;2024-01-15T00:10:19;33.67;;;14.13;;
3307;SDS011;1666;48.898;9.182;2024-01-15T00:12:49;31.33;;;13.88;;
3307;SDS011;1666;48.898;9.182;2024-01-15T00:15:19;35.88;;;13.75;;
3307;SDS011;1666;48.898;9.182;2024-01-15T00:17:49;34.72;;;14.57;;
3307;SDS011;1666;48.898;9.182;2024-01-15T00:20:19;34.42;;;14.23;;
3307;SDS011;1666;48.898;9.182;2024-01-15T00:22:52;32.50;;;13.43;;
3307;SDS011;1666;48.898;9.182;2024-01-15T00:25:22;28.48;;;12.52;;
3307;SDS011;1666;48.898;9.182;2024-01-15T00:27:52;35.03;;;13.35;;
3307;SDS011;1666;48.898;9.182;2024-01-15T00:30:22;30.83;;;12.82;;
3307;SDS011;1666;48.898;9.182;2024-01-15T00:32:53;31.90;;;12.00;;
3307;SDS011;1666;48.898;9.182;2024-01-15T00:35:23;35.53;;;13.77;;
3307;SDS011;1666;48.898;9.182;2024-01-15T00:37:56;31.27;;;14.55;;
3307;SDS011;1666;48.898;9.182;2024-01-15T00:40:26;29.75;;;13.05;;
3307;SDS011;1666;48.898;9.182;2024-01-15T00:42:56;28.83;;;11.70;;
3307;SDS011;1666;48.898;9.182;2024-01-15T00:45:26;27.30;;;11.63;;
3307;SDS011;1666;48.898;9.182;2024-01-15T00:47:56;30.50;;;11.77;;
3307;SDS011;1666;48.898;9.182;2024-01-15T00:50:27;30.13;;;12.68;;
3307;SDS011;1666;48.898;9.182;2024-01-15T00:53:00;29.70;;;11.90;;
3307;SDS011;1666;48.898;9.182;2024-01-15T00:55:31;33.45;;;13.48;;
3307;SDS011;1666;48.898;9.182;2024-01-15T00:58:01;29.95;;;12.13;;
3307;SDS011;1666;48.898;9.182;2024-01-15T01:00:31;33.20;;;12.05;;
3307;SDS011;1666;48.898;9.182;2024-01-15T01:03:01;26.98;;;10.85;;
3307;SDS011;1666;48.898;9.182;2024-01-15T01:05:31;27.92;;;12.35;;
3307;SDS011;1666;48.898;9.182;2024-01-15T01:08:05;26.67;;;10.95;;
3307;SDS011;1666;48.898;9.182;2024-01-15T01:10:35;27.58;;;11.43;;
3307;SDS011;1666;48.898;9.182;2024-01-15T01:13:05;31.65;;;12.35;;
3307;SDS011;1666;48.898;9.182;2024-01-15T01:15:35;26.77;;;10.85;;
3307;SDS011;1666;48.898;9.182;2024-01-15T01:18:05;25.42;;;11.68;;
3307;SDS011;1666;48.898;9.182;2024-01-15T01:20:35;28.65;;;12.95;;
3307;SDS011;1666;48.898;9.182;2024-01-15T01:23:08;28.38;;;12.48;;
3307;SDS011;1666;48.898;9.182;2024-01-15T01:25:38;29.55;;;13.90;;
3307;SDS011;1666;48.898;9.182;2024-01-15T01:28:08;29.30;;;12.15;;
3307;SDS011;1666;48.898;9.182;2024-01-15T01:30:38;26.23;;;11.73;;
3307;SDS011;1666;48.898;9.182;2024-01-15T01:33:09;26.77;;;11.20;;
3307;SDS011;1666;48.898;9.182;2024-01-15T01:35:39;25.73;;;12.50;;
3307;SDS011;1666;48.898;9.182;2024-01-15T01:38:12;26.30;;;12.93;;
3307;SDS011;1666;48.898;9.182;2024-01-15T01:40:42;29.85;;;13.13;;
3307;SDS011;1666;48.898;9.182;2024-01-15T01:43:12;33.05;;;15.15;;
3307;SDS011;1666;48.898;9.182;2024-01-15T01:45:42;28.02;;;11.73;;
3307;SDS011;1666;48.898;9.182;2024-01-15T01:48:13;25.42;;;11.48;;
3307;SDS011;1666;48.898;9.182;2024-01-15T01:50:44;31.05;;;13.27;;
3307;SDS011;1666;48.898;9.182;2024-01-15T01:53:17;31.08;;;14.88;;
3307;SDS011;1666;48.898;9.182;2024-01-15T01:55:47;25.42;;;12.48;;
3307;SDS011;1666;48.898;9.182;2024-01-15T01:58:18;25.42;;;12.05;;
3307;SDS011;1666;48.898;9.182;2024-01-15T02:00:48;26.55;;;13.00;;
3307;SDS011;1666;48.898;9.182;2024-01-15T02:03:19;28.83;;;11.80;;
3307;SDS011;1666;48.898;9.182;2024-01-15T02:05:49;28.83;;;13.00;;
3307;SDS011;1666;48.898;9.182;2024-01-15T02:08:23;27.73;;;12.52;;
3307;SDS011;1666;48.898;9.182;2024-01-15T02:10:53;24.67;;;11.43;;
3307;SDS011;1666;48.898;9.182;2024-01-15T02:13:23;25.67;;;11.55;;
3307;SDS011;1666;48.898;9.182;2024-01-15T02:15:53;26.17;;;11.75;;
3307;SDS011;1666;48.898;9.182;2024-01-15T02:18:23;21.33;;;10.77;;
3307;SDS011;1666;48.898;9.182;2024-01-15T02:20:53;24.45;;;11.60;;
3307;SDS011;1666;48.898;9.182;2024-01-15T02:23:26;22.00;;;11.10;;
3307;SDS011;1666;48.898;9.182;2024-01-15T02:25:56;24.73;;;11.40;;
3307;SDS011;1666;48.898;9.182;2024-01-15T02:28:26;21.85;;;11.40;;
3307;SDS011;1666;48.898;9.182;2024-01-15T02:30:56;22.88;;;10.93;;
3307;SDS011;1666;48.898;9.182;2024-01-15T02:33:26;24.10;;;11.15;;
3307;SDS011;1666;48.898;9.182;2024-01-15T02:35:56;25.08;;;11.30;;
3307;SDS011;1666;48.898;9.182;2024-01-15T02:38:29;22.02;;;10.60;;
3307;SDS011;1666;48.898;9.182;2024-01-15T02:40:59;21.17;;;10.23;;
3307;SDS011;1666;48.898;9.182;2024-01-15T02:43:29;21.50;;;10.45;;
3307;SDS011;1666;48.898;9.182;2024-01-15T02:45:59;21.67;;;10.45;;
3307;SDS011;1666;48.898;9.182;2024-01-15T02:48:29;22.83;;;10.73;;
3307;SDS011;1666;48.898;9.182;2024-01-15T02:51:00;22.98;;;10.95;;
3307;SDS011;1666;48.898;9.182;2024-01-15T02:53:33;21.45;;;10.35;;
3307;SDS011;1666;48.898;9.182;2024-01-15T02:56:03;21.08;;;10.60;;
3307;SDS011;1666;48.898;9.182;2024-01-15T02:58:33;24.70;;;10.35;;
3307;SDS011;1666;48.898;9.182;2024-01-15T03:01:03;21.52;;;10.68;;
3307;SDS011;1666;48.898;9.182;2024-01-15T03:03:33;20.80;;;9.75;;
3307;SDS011;1666;48.898;9.182;2024-01-15T03:06:04;20.70;;;9.88;;
3307;SDS011;1666;48.898;9.182;2024-01-15T03:08:37;23.13;;;10.35;;
3307;SDS011;1666;48.898;9.182;2024-01-15T03:11:07;21.88;;;10.15;;
3307;SDS011;1666;48.898;9.182;2024-01-15T03:13:37;19.50;;;9.77;;
3307;SDS011;1666;48.898;9.182;2024-01-15T03:16:07;23.75;;;10.10;;
3307;SDS011;1666;48.898;9.182;2024-01-15T03:18:37;20.67;;;9.95;;
3307;SDS011;1666;48.898;9.182;2024-01-15T03:21:07;24.42;;;10.27;;
3307;SDS011;1666;48.898;9.182;2024-01-15T03:23:40;23.50;;;11.10;;
3307;SDS011;1666;48.898;9.182;2024-01-15T03:26:10;19.33;;;10.23;;
3307;SDS011;1666;48.898;9.182;2024-01-15T03:28:40;21.13;;;9.88;;
3307;SDS011;1666;48.898;9.182;2024-01-15T03:31:10;22.48;;;10.75;;
3307;SDS011;1666;48.898;9.182;2024-01-15T03:33:40;22.88;;;11.02;;
3307;SDS011;1666;48.898;9.182;2024-01-15T03:36:10;20.23;;;9.80;;
3307;SDS011;1666;48.898;9.182;2024-01-15T03:38:43;19.08;;;10.45;;
3307;SDS011;1666;48.898;9.182;2024-01-15T03:41:13;19.75;;;8.95;;
3307;SDS011;1666;48.898;9.182;2024-01-15T03:43:43;22.38;;;10.38;;
3307;SDS011;1666;48.898;9.182;2024-01-15T03:46:13;22.52;;;10.77;;
3307;SDS011;1666;48.898;9.182;2024-01-15T03:48:43;21.48;;;9.85;;
3307;SDS011;1666;48.898;9.182;2024-01-15T03:51:15;22.83;;;10.00;;
3307;SDS011;1666;48.898;9.182;2024-01-15T03:53:50;20.67;;;9.45;;
3307;SDS011;1666;48.898;9.182;2024-01-15T03:56:20;23.02;;;11.07;;
3307;SDS011;1666;48.898;9.182;2024-01-15T03:58:50;19.50;;;9.30;;
3307;SDS011;1666;48.898;9.182;2024-01-15T04:01:20;16.70;;;9.18;;
3307;SDS011;1666;48.898;9.182;2024-01-15T04:03:50;17.95;;;9.38;;
3307;SDS011;1666;48.898;9.182;2024-01-15T04:06:20;19.88;;;9.32;;
3307;SDS011;1666;48.898;9.182;2024-01-15T04:08:53;19.80;;;9.80;;
3307;SDS011;1666;48.898;9.182;2024-01-15T04:11:23;19.95;;;9.93;;
3307;SDS011;1666;48.898;9.182;2024-01-15T04:13:53;17.05;;;8.88;;
3307;SDS011;1666;48.898;9.182;2024-01-15T04:16:23;18.50;;;9.02;;
3307;SDS011;1666;48.898;9.182;2024-01-15T04:18:53;17.73;;;9.18;;
3307;SDS011;1666;48.898;9.182;2024-01-15T04:21:23;16.23;;;8.25;;
3307;SDS011;1666;48.898;9.182;2024-01-15T04:23:55;19.02;;;8.85;;
3307;SDS011;1666;48.898;9.182;2024-01-15T04:26:25;16.73;;;8.60;;
3307;SDS011;1666;48.898;9.182;2024-01-15T04:28:55;17.27;;;8.43;;
3307;SDS011;1666;48.898;9.182;2024-01-15T04:31:26;24.23;;;8.32;;
3307;SDS011;1666;48.898;9.182;2024-01-15T04:33:56;16.20;;;8.25;;
3307;SDS011;1666;48.898;9.182;2024-01-15T04:36:26;17.02;;;7.97;;
3307;SDS011;1666;48.898;9.182;2024-01-15T04:38:59;14.18;;;7.65;;
3307;SDS011;1666;48.898;9.182;2024-01-15T04:41:29;13.15;;;7.57;;
3307;SDS011;1666;48.898;9.182;2024-01-15T04:43:59;14.40;;;7.63;;
3307;SDS011;1666;48.898;9.182;2024-01-15T04:46:29;15.00;;;7.95;;
3307;SDS011;1666;48.898;9.182;2024-01-15T04:48:59;14.70;;;7.70;;
3307;SDS011;1666;48.898;9.182;2024-01-15T04:51:29;14.90;;;7.40;;
3307;SDS011;1666;48.898;9.182;2024-01-15T04:54:02;15.77;;;8.20;;
3307;SDS011;1666;48.898;9.182;2024-01-15T04:56:33;14.13;;;7.40;;
3307;SDS011;1666;48.898;9.182;2024-01-15T04:59:03;14.68;;;6.85;;
3307;SDS011;1666;48.898;9.182;2024-01-15T05:01:33;12.55;;;7.65;;
3307;SDS011;1666;48.898;9.182;2024-01-15T05:04:03;12.32;;;6.80;;
3307;SDS011;1666;48.898;9.182;2024-01-15T05:06:33;13.85;;;7.93;;
3307;SDS011;1666;48.898;9.182;2024-01-15T05:09:06;13.52;;;7.13;;
3307;SDS011;1666;48.898;9.182;2024-01-15T05:11:36;15.90;;;8.35;;
3307;SDS011;1666;48.898;9.182;2024-01-15T05:14:06;12.93;;;7.47;;
3307;SDS011;1666;48.898;9.182;2024-01-15T05:16:37;12.90;;;7.43;;
3307;SDS011;1666;48.898;9.182;2024-01-15T05:19:07;12.27;;;7.03;;
3307;SDS011;1666;48.898;9.182;2024-01-15T05:21:38;11.52;;;6.75;;
3307;SDS011;1666;48.898;9.182;2024-01-15T05:24:10;14.30;;;7.78;;
3307;SDS011;1666;48.898;9.182;2024-01-15T05:26:41;12.63;;;7.18;;
3307;SDS011;1666;48.898;9.182;2024-01-15T05:29:10;16.35;;;7.85;;
3307;SDS011;1666;48.898;9.182;2024-01-15T05:31:40;14.07;;;6.78;;
3307;SDS011;1666;48.898;9.182;2024-01-15T05:34:11;14.30;;;7.03;;
3307;SDS011;1666;48.898;9.182;2024-01-15T05:36:41;13.85;;;7.28;;
3307;SDS011;1666;48.898;9.182;2024-01-15T05:39:17;13.43;;;7.72;;
3307;SDS011;1666;48.898;9.182;2024-01-15T05:41:49;14.13;;;8.25;;
3307;SDS011;1666;48.898;9.182;2024-01-15T05:44:19;15.05;;;7.85;;
3307;SDS011;1666;48.898;9.182;2024-01-15T05:46:49;14.35;;;7.90;;
3307;SDS011;1666;48.898;9.182;2024-01-15T05:49:19;13.68;;;7.85;;
3307;SDS011;1666;48.898;9.182;2024-01-15T05:51:50;18.48;;;8.75;;
3307;SDS011;1666;48.898;9.182;2024-01-15T05:54:22;13.70;;;7.90;;
3307;SDS011;1666;48.898;9.182;2024-01-15T05:56:53;17.92;;;8.57;;
3307;SDS011;1666;48.898;9.182;2024-01-15T05:59:23;13.75;;;8.32;;
3307;SDS011;1666;48.898;9.182;2024-01-15T06:01:53;16.70;;;7.85;;
3307;SDS011;1666;48.898;9.182;2024-01-15T06:04:23;16.20;;;9.13;;
3307;SDS011;1666;48.898;9.182;2024-01-15T06:06:53;14.98;;;8.40;;
3307;SDS011;1666;48.898;9.182;2024-01-15T06:09:26;17.83;;;8.30;;
3307;SDS011;1666;48.898;9.182;2024-01-15T06:11:58;16.45;;;8.73;;
3307;SDS011;1666;48.898;9.182;2024-01-15T06:14:28;16.73;;;8.88;;
3307;SDS011;1666;48.898;9.182;2024-01-15T06:16:58;17.23;;;8.77;;
3307;SDS011;1666;48.898;9.182;2024-01-15T06:19:29;19.45;;;9.40;;
3307;SDS011;1666;48.898;9.182;2024-01-15T06:21:59;15.93;;;8.80;;
3307;SDS011;1666;48.898;9.182;2024-01-15T06:24:32;15.98;;;8.93;;
3307;SDS011;1666;48.898;9.182;2024-01-15T06:27:02;17.67;;;8.70;;
3307;SDS011;1666;48.898;9.182;2024-01-15T06:29:32;15.05;;;8.10;;
3307;SDS011;1666;48.898;9.182;2024-01-15T06:32:03;17.45;;;8.82;;
3307;SDS011;1666;48.898;9.182;2024-01-15T06:34:33;15.77;;;8.48;;
3307;SDS011;1666;48.898;9.182;2024-01-15T06:37:03;15.88;;;8.23;;
3307;SDS011;1666;48.898;9.182;2024-01-15T06:39:36;14.65;;;8.52;;
3307;SDS011;1666;48.898;9.182;2024-01-15T06:42:06;13.90;;;7.95;;
3307;SDS011;1666;48.898;9.182;2024-01-15T06:44:36;19.13;;;8.07;;
3307;SDS011;1666;48.898;9.182;2024-01-15T06:47:06;16.88;;;8.82;;
3307;SDS011;1666;48.898;9.182;2024-01-15T06:49:36;16.55;;;8.82;;
3307;SDS011;1666;48.898;9.182;2024-01-15T06:52:06;15.90;;;8.30;;
3307;SDS011;1666;48.898;9.182;2024-01-15T06:54:39;15.30;;;8.23;;
3307;SDS011;1666;48.898;9.182;2024-01-15T06:57:09;15.85;;;8.25;;
3307;SDS011;1666;48.898;9.182;2024-01-15T06:59:39;15.98;;;8.27;;
3307;SDS011;1666;48.898;9.182;2024-01-15T07:02:09;16.92;;;8.30;;
3307;SDS011;1666;48.898;9.182;2024-01-15T07:04:39;15.40;;;8.18;;
3307;SDS011;1666;48.898;9.182;2024-01-15T07:07:09;13.48;;;8.13;;
3307;SDS011;1666;48.898;9.182;2024-01-15T07:09:42;15.30;;;8.40;;
3307;SDS011;1666;48.898;9.182;2024-01-15T07:12:12;13.05;;;7.80;;
3307;SDS011;1666;48.898;9.182;2024-01-15T07:14:43;15.57;;;8.18;;
3307;SDS011;1666;48.898;9.182;2024-01-15T07:17:13;16.83;;;8.00;;
3307;SDS011;1666;48.898;9.182;2024-01-15T07:19:43;15.93;;;8.07;;
3307;SDS011;1666;48.898;9.182;2024-01-15T07:22:13;15.55;;;7.88;;
3307;SDS011;1666;48.898;9.182;2024-01-15T07:24:46;14.85;;;7.72;;
3307;SDS011;1666;48.898;9.182;2024-01-15T07:27:16;17.50;;;7.70;;
3307;SDS011;1666;48.898;9.182;2024-01-15T07:29:46;18.38;;;8.30;;
3307;SDS011;1666;48.898;9.182;2024-01-15T07:32:16;15.63;;;8.32;;
3307;SDS011;1666;48.898;9.182;2024-01-15T07:34:47;12.43;;;7.53;;
3307;SDS011;1666;48.898;9.182;2024-01-15T07:37:17;15.07;;;8.57;;
3307;SDS011;1666;48.898;9.182;2024-01-15T07:39:50;16.17;;;8.10;;
3307;SDS011;1666;48.898;9.182;2024-01-15T07:42:20;12.68;;;7.63;;
3307;SDS011;1666;48.898;9.182;2024-01-15T07:44:50;16.50;;;7.75;;
3307;SDS011;1666;48.898;9.182;2024-01-15T07:47:20;14.10;;;8.68;;
3307;SDS011;1666;48.898;9.182;2024-01-15T07:49:50;14.98;;;7.90;;
3307;SDS011;1666;48.898;9.182;2024-01-15T07:52:20;13.20;;;7.97;;
3307;SDS011;1666;48.898;9.182;2024-01-15T07:54:53;14.05;;;7.50;;
3307;SDS011;1666;48.898;9.182;2024-01-15T07:57:23;12.13;;;7.20;;
3307;SDS011;1666;48.898;9.182;2024-01-15T07:59:54;12.25;;;7.40;;
3307;SDS011;1666;48.898;9.182;2024-01-15T08:02:24;14.27;;;7.20;;
3307;SDS011;1666;48.898;9.182;2024-01-15T08:04:54;12.40;;;7.18;;
3307;SDS011;1666;48.898;9.182;2024-01-15T08:07:25;15.02;;;7.57;;
3307;SDS011;1666;48.898;9.182;2024-01-15T08:09:58;14.52;;;7.18;;
3307;SDS011;1666;48.898;9.182;2024-01-15T08:12:28;14.52;;;7.50;;
3307;SDS011;1666;48.898;9.182;2024-01-15T08:14:59;12.63;;;7.15;;
3307;SDS011;1666;48.898;9.182;2024-01-15T08:17:29;15.88;;;6.80;;
3307;SDS011;1666;48.898;9.182;2024-01-15T08:19:59;14.70;;;6.72;;
3307;SDS011;1666;48.898;9.182;2024-01-15T08:22:32;18.33;;;6.80;;
3307;SDS011;1666;48.898;9.182;2024-01-15T08:25:05;13.95;;;7.45;;
3307;SDS011;1666;48.898;9.182;2024-01-15T08:27:35;11.55;;;6.45;;
3307;SDS011;1666;48.898;9.182;2024-01-15T08:30:06;28.13;;;16.33;;
3307;SDS011;1666;48.898;9.182;2024-01-15T08:32:37;13.75;;;7.22;;
3307;SDS011;1666;48.898;9.182;2024-01-15T08:35:09;12.32;;;6.30;;
3307;SDS011;1666;48.898;9.182;2024-01-15T08:37:39;12.93;;;6.32;;
3307;SDS011;1666;48.898;9.182;2024-01-15T08:40:12;13.05;;;6.95;;
3307;SDS011;1666;48.898;9.182;2024-01-15T08:42:42;12.65;;;6.50;;
3307;SDS011;1666;48.898;9.182;2024-01-15T08:45:13;16.88;;;9.40;;
3307;SDS011;1666;48.898;9.182;2024-01-15T08:47:43;17.35;;;7.05;;
3307;SDS011;1666;48.898;9.182;2024-01-15T08:50:13;13.25;;;6.60;;
3307;SDS011;1666;48.898;9.182;2024-01-15T08:52:43;12.63;;;6.38;;
3307;SDS011;1666;48.898;9.182;2024-01-15T08:55:16;9.93;;;5.78;;
3307;SDS011;1666;48.898;9.182;2024-01-15T08:57:46;11.52;;;5.72;;
3307;SDS011;1666;48.898;9.182;2024-01-15T09:00:16;12.27;;;6.22;;
3307;SDS011;1666;48.898;9.182;2024-01-15T09:02:47;9.73;;;5.53;;
3307;SDS011;1666;48.898;9.182;2024-01-15T09:05:17;11.68;;;6.10;;
3307;SDS011;1666;48.898;9.182;2024-01-15T09:07:47;11.05;;;5.47;;
3307;SDS011;1666;48.898;9.182;2024-01-15T09:10:21;11.10;;;5.70;;
3307;SDS011;1666;48.898;9.182;2024-01-15T09:12:51;12.38;;;5.68;;
3307;SDS011;1666;48.898;9.182;2024-01-15T09:15:21;11.00;;;6.43;;
3307;SDS011;1666;48.898;9.182;2024-01-15T09:17:51;15.75;;;5.85;;
3307;SDS011;1666;48.898;9.182;2024-01-15T09:20:21;9.65;;;5.47;;
3307;SDS011;1666;48.898;9.182;2024-01-15T09:22:52;9.00;;;5.30;;
3307;SDS011;1666;48.898;9.182;2024-01-15T09:25:25;8.25;;;5.05;;
3307;SDS011;1666;48.898;9.182;2024-01-15T09:27:55;11.70;;;4.82;;
3307;SDS011;1666;48.898;9.182;2024-01-15T09:30:25;9.95;;;4.90;;
3307;SDS011;1666;48.898;9.182;2024-01-15T09:32:55;12.98;;;6.22;;
3307;SDS011;1666;48.898;9.182;2024-01-15T09:35:25;12.20;;;5.53;;
3307;SDS011;1666;48.898;9.182;2024-01-15T09:37:55;12.75;;;5.47;;
3307;SDS011;1666;48.898;9.182;2024-01-15T09:40:29;11.45;;;5.07;;
3307;SDS011;1666;48.898;9.182;2024-01-15T09:43:01;9.52;;;4.90;;
3307;SDS011;1666;48.898;9.182;2024-01-15T09:45:32;10.38;;;5.00;;
3307;SDS011;1666;48.898;9.182;2024-01-15T09:48:02;11.60;;;4.70;;
3307;SDS011;1666;48.898;9.182;2024-01-15T09:50:32;10.55;;;5.15;;
3307;SDS011;1666;48.898;9.182;2024-01-15T09:53:03;11.68;;;4.93;;
3307;SDS011;1666;48.898;9.182;2024-01-15T09:55:38;9.20;;;4.95;;
3307;SDS011;1666;48.898;9.182;2024-01-15T09:58:09;9.32;;;4.95;;
3307;SDS011;1666;48.898;9.182;2024-01-15T10:00:39;8.65;;;4.97;;
3307;SDS011;1666;48.898;9.182;2024-01-15T10:03:11;9.90;;;5.13;;
3307;SDS011;1666;48.898;9.182;2024-01-15T10:05:43;12.48;;;5.38;;
3307;SDS011;1666;48.898;9.182;2024-01-15T10:08:13;13.82;;;5.45;;
3307;SDS011;1666;48.898;9.182;2024-01-15T10:10:47;7.90;;;5.10;;
3307;SDS011;1666;48.898;9.182;2024-01-15T10:13:17;8.90;;;4.53;;
3307;SDS011;1666;48.898;9.182;2024-01-15T10:15:47;9.05;;;4.70;;
3307;SDS011;1666;48.898;9.182;2024-01-15T10:18:18;6.28;;;4.07;;
3307;SDS011;1666;48.898;9.182;2024-01-15T10:20:48;8.30;;;4.50;;
3307;SDS011;1666;48.898;9.182;2024-01-15T10:23:18;10.60;;;4.38;;
3307;SDS011;1666;48.898;9.182;2024-01-15T10:25:52;9.00;;;3.92;;
3307;SDS011;1666;48.898;9.182;2024-01-15T10:28:22;10.07;;;4.57;;
3307;SDS011;1666;48.898;9.182;2024-01-15T10:30:57;13.40;;;4.90;;
3307;SDS011;1666;48.898;9.182;2024-01-15T10:33:28;10.50;;;4.30;;
3307;SDS011;1666;48.898;9.182;2024-01-15T10:35:59;13.18;;;4.80;;
3307;SDS011;1666;48.898;9.182;2024-01-15T10:38:30;13.57;;;5.10;;
3307;SDS011;1666;48.898;9.182;2024-01-15T10:41:03;9.80;;;5.15;;
3307;SDS011;1666;48.898;9.182;2024-01-15T10:43:33;6.82;;;4.30;;
3307;SDS011;1666;48.898;9.182;2024-01-15T10:46:03;12.65;;;6.00;;
3307;SDS011;1666;48.898;9.182;2024-01-15T10:48:33;10.15;;;4.82;;
3307;SDS011;1666;48.898;9.182;2024-01-15T10:51:04;11.18;;;5.45;;
3307;SDS011;1666;48.898;9.182;2024-01-15T10:53:38;14.93;;;5.10;;
3307;SDS011;1666;48.898;9.182;2024-01-15T10:56:11;15.70;;;5.93;;
3307;SDS011;1666;48.898;9.182;2024-01-15T10:58:43;17.70;;;5.38;;
3307;SDS011;1666;48.898;9.182;2024-01-15T11:01:14;12.32;;;4.60;;
3307;SDS011;1666;48.898;9.182;2024-01-15T11:03:46;12.05;;;5.13;;
3307;SDS011;1666;48.898;9.182;2024-01-15T11:06:17;9.82;;;5.63;;
3307;SDS011;1666;48.898;9.182;2024-01-15T11:08:48;10.57;;;6.70;;
3307;SDS011;1666;48.898;9.182;2024-01-15T11:11:21;8.20;;;5.22;;
3307;SDS011;1666;48.898;9.182;2024-01-15T11:13:52;12.10;;;5.68;;
3307;SDS011;1666;48.898;9.182;2024-01-15T11:16:23;10.80;;;5.90;;
3307;SDS011;1666;48.898;9.182;2024-01-15T11:19:02;11.52;;;6.07;;
3307;SDS011;1666;48.898;9.182;2024-01-15T11:21:35;12.65;;;6.45;;
3307;SDS011;1666;48.898;9.182;2024-01-15T11:24:12;11.32;;;5.88;;
3307;SDS011;1666;48.898;9.182;2024-01-15T11:27:08;12.13;;;5.57;;
3307;SDS011;1666;48.898;9.182;2024-01-15T11:29:38;9.73;;;5.65;;
3307;SDS011;1666;48.898;9.182;2024-01-15T11:32:08;10.55;;;5.82;;
3307;SDS011;1666;48.898;9.182;2024-01-15T11:40:38;9.45;;;6.30;;
3307;SDS011;1666;48.898;9.182;2024-01-15T11:43:12;15.88;;;6.30;;
3307;SDS011;1666;48.898;9.182;2024-01-15T11:45:47;12.30;;;6.68;;
3307;SDS011;1666;48.898;9.182;2024-01-15T11:48:21;20.08;;;7.30;;
3307;SDS011;1666;48.898;9.182;2024-01-15T11:50:57;15.88;;;7.88;;
3307;SDS011;1666;48.898;9.182;2024-01-15T11:53:32;10.40;;;6.13;;
3307;SDS011;1666;48.898;9.182;2024-01-15T11:56:11;12.60;;;6.47;;
3307;SDS011;1666;48.898;9.182;2024-01-15T11:58:47;12.00;;;6.38;;
3307;SDS011;1666;48.898;9.182;2024-01-15T12:01:18;9.60;;;6.20;;
3307;SDS011;1666;48.898;9.182;2024-01-15T12:03:48;12.10;;;6.07;;
3307;SDS011;1666;48.898;9.182;2024-01-15T12:06:18;10.48;;;6.47;;
3307;SDS011;1666;48.898;9.182;2024-01-15T12:08:50;12.48;;;6.80;;
3307;SDS011;1666;48.898;9.182;2024-01-15T12:11:20;12.32;;;6.57;;
3307;SDS011;1666;48.898;9.182;2024-01-15T12:13:56;11.20;;;6.70;;
3307;SDS011;1666;48.898;9.182;2024-01-15T12:16:26;16.48;;;7.30;;
3307;SDS011;1666;48.898;9.182;2024-01-15T12:18:56;11.82;;;7.15;;
3307;SDS011;1666;48.898;9.182;2024-01-15T12:21:27;13.02;;;7.72;;
3307;SDS011;1666;48.898;9.182;2024-01-15T12:23:57;22.15;;;11.93;;
3307;SDS011;1666;48.898;9.182;2024-01-15T12:26:27;12.15;;;6.82;;
3307;SDS011;1666;48.898;9.182;2024-01-15T12:29:00;11.98;;;6.72;;
3307;SDS011;1666;48.898;9.182;2024-01-15T12:31:31;13.93;;;6.45;;
3307;SDS011;1666;48.898;9.182;2024-01-15T12:34:01;12.00;;;6.45;;
3307;SDS011;1666;48.898;9.182;2024-01-15T12:36:31;14.73;;;6.28;;
3307;SDS011;1666;48.898;9.182;2024-01-15T12:39:01;12.98;;;6.85;;
3307;SDS011;1666;48.898;9.182;2024-01-15T12:41:32;14.13;;;6.20;;
3307;SDS011;1666;48.898;9.182;2024-01-15T12:44:05;10.82;;;5.80;;
3307;SDS011;1666;48.898;9.182;2024-01-15T12:46:36;9.57;;;5.95;;
3307;SDS011;1666;48.898;9.182;2024-01-15T12:49:07;12.63;;;5.95;;
3307;SDS011;1666;48.898;9.182;2024-01-15T12:51:37;10.40;;;5.47;;
3307;SDS011;1666;48.898;9.182;2024-01-15T12:54:08;14.68;;;5.85;;
3307;SDS011;1666;48.898;9.182;2024-01-15T12:56:39;11.30;;;5.80;;
3307;SDS011;1666;48.898;9.182;2024-01-15T12:59:11;11.50;;;5.88;;
3307;SDS011;1666;48.898;9.182;2024-01-15T13:01:41;14.73;;;6.00;;
3307;SDS011;1666;48.898;9.182;2024-01-15T13:04:12;12.32;;;5.28;;
3307;SDS011;1666;48.898;9.182;2024-01-15T13:06:52;11.20;;;4.95;;
3307;SDS011;1666;48.898;9.182;2024-01-15T13:09:22;11.52;;;4.70;;
3307;SDS011;1666;48.898;9.182;2024-01-15T13:11:52;6.18;;;4.10;;
3307;SDS011;1666;48.898;9.182;2024-01-15T13:14:25;6.50;;;3.75;;
3307;SDS011;1666;48.898;9.182;2024-01-15T13:16:55;6.20;;;3.92;;
3307;SDS011;1666;48.898;9.182;2024-01-15T13:19:26;5.22;;;3.60;;
3307;SDS011;1666;48.898;9.182;2024-01-15T13:21:58;11.57;;;4.32;;
3307;SDS011;1666;48.898;9.182;2024-01-15T13:24:30;8.38;;;4.43;;
3307;SDS011;1666;48.898;9.182;2024-01-15T13:27:00;6.18;;;4.20;;
3307;SDS011;1666;48.898;9.182;2024-01-15T13:29:33;8.55;;;4.78;;
3307;SDS011;1666;48.898;9.182;2024-01-15T13:32:04;7.75;;;4.93;;
3307;SDS011;1666;48.898;9.182;2024-01-15T13:34:34;10.07;;;4.78;;
3307;SDS011;1666;48.898;9.182;2024-01-15T13:37:04;7.07;;;4.50;;
3307;SDS011;1666;48.898;9.182;2024-01-15T13:39:36;13.15;;;5.93;;
3307;SDS011;1666;48.898;9.182;2024-01-15T13:42:06;7.82;;;4.97;;
3307;SDS011;1666;48.898;9.182;2024-01-15T13:44:42;10.68;;;5.75;;
3307;SDS011;1666;48.898;9.182;2024-01-15T13:47:13;8.80;;;5.45;;
3307;SDS011;1666;48.898;9.182;2024-01-15T13:49:43;11.30;;;5.60;;
3307;SDS011;1666;48.898;9.182;2024-01-15T13:52:13;9.25;;;5.88;;
3307;SDS011;1666;48.898;9.182;2024-01-15T13:54:43;10.15;;;6.03;;
3307;SDS011;1666;48.898;9.182;2024-01-15T13:57:16;35.33;;;19.37;;
3307;SDS011;1666;48.898;9.182;2024-01-15T13:59:49;8.63;;;5.75;;
3307;SDS011;1666;48.898;9.182;2024-01-15T14:02:19;10.43;;;6.47;;
3307;SDS011;1666;48.898;9.182;2024-01-15T14:04:52;16.45;;;7.05;;
3307;SDS011;1666;48.898;9.182;2024-01-15T14:07:22;12.90;;;7.65;;
3307;SDS011;1666;48.898;9.182;2024-01-15T14:09:51;12.35;;;7.25;;
3307;SDS011;1666;48.898;9.182;2024-01-15T14:12:22;12.45;;;7.43;;
3307;SDS011;1666;48.898;9.182;2024-01-15T14:14:56;10.82;;;7.13;;
3307;SDS011;1666;48.898;9.182;2024-01-15T14:17:27;11.15;;;7.22;;
3307;SDS011;1666;48.898;9.182;2024-01-15T14:19:57;12.88;;;8.27;;
3307;SDS011;1666;48.898;9.182;2024-01-15T14:22:32;13.10;;;8.45;;
3307;SDS011;1666;48.898;9.182;2024-01-15T14:25:02;11.75;;;7.28;;
3307;SDS011;1666;48.898;9.182;2024-01-15T14:27:32;16.38;;;8.25;;
3307;SDS011;1666;48.898;9.182;2024-01-15T14:30:06;15.10;;;8.88;;
3307;SDS011;1666;48.898;9.182;2024-01-15T14:32:39;14.15;;;8.25;;
3307;SDS011;1666;48.898;9.182;2024-01-15T14:35:10;13.73;;;8.68;;
3307;SDS011;1666;48.898;9.182;2024-01-15T14:37:41;17.25;;;10.45;;
3307;SDS011;1666;48.898;9.182;2024-01-15T14:40:12;15.25;;;9.40;;
3307;SDS011;1666;48.898;9.182;2024-01-15T14:42:43;14.93;;;9.07;;
3307;SDS011;1666;48.898;9.182;2024-01-15T14:45:16;14.80;;;8.80;;
3307;SDS011;1666;48.898;9.182;2024-01-15T14:47:46;15.48;;;8.90;;
3307;SDS011;1666;48.898;9.182;2024-01-15T14:50:17;14.00;;;8.43;;
3307;SDS011;1666;48.898;9.182;2024-01-15T14:52:47;15.73;;;9.00;;
3307;SDS011;1666;48.898;9.182;2024-01-15T14:55:17;14.75;;;9.57;;
3307;SDS011;1666;48.898;9.182;2024-01-15T14:57:47;13.35;;;9.13;;
3307;SDS011;1666;48.898;9.182;2024-01-15T15:00:22;12.43;;;8.43;;
3307;SDS011;1666;48.898;9.182;2024-01-15T15:02:52;12.93;;;8.80;;
3307;SDS011;1666;48.898;9.182;2024-01-15T15:05:22;15.38;;;8.63;;
3307;SDS011;1666;48.898;9.182;2024-01-15T15:07:53;13.82;;;9.20;;
3307;SDS011;1666;48.898;9.182;2024-01-15T15:10:23;17.92;;;9.75;;
3307;SDS011;1666;48.898;9.182;2024-01-15T15:12:53;16.77;;;9.85;;
3307;SDS011;1666;48.898;9.182;2024-01-15T15:15:26;14.40;;;9.57;;
3307;SDS011;1666;48.898;9.182;2024-01-15T15:17:56;18.05;;;9.98;;
3307;SDS011;1666;48.898;9.182;2024-01-15T15:20:26;14.25;;;9.30;;
3307;SDS011;1666;48.898;9.182;2024-01-15T15:22:56;16.45;;;10.23;;
3307;SDS011;1666;48.898;9.182;2024-01-15T15:25:26;14.85;;;9.20;;
3307;SDS011;1666;48.898;9.182;2024-01-15T15:27:56;15.75;;;9.63;;